createdAt,value
2019-03-27T00:00:58.806Z,5.30
2019-03-27T00:03:26.848Z,5.30
2019-03-27T00:05:54.896Z,5.20
2019-03-27T00:10:58.056Z,5.20
2019-03-27T00:13:26.116Z,5.10
2019-03-27T00:15:54.164Z,5.20
2019-03-27T00:18:22.216Z,5.10
2019-03-27T00:20:51.028Z,5.00
2019-03-27T00:23:19.110Z,5.00
2019-03-27T00:25:47.158Z,5.10
2019-03-27T00:28:15.218Z,5.00
2019-03-27T00:30:44.042Z,4.80
2019-03-27T00:33:12.083Z,4.80
2019-03-27T00:35:40.911Z,4.70
2019-03-27T00:38:09.038Z,4.70
2019-03-27T00:40:37.948Z,4.90
2019-03-27T00:43:05.993Z,4.90
2019-03-27T00:45:34.802Z,4.60
2019-03-27T00:48:02.834Z,4.60
2019-03-27T00:50:30.879Z,4.70
2019-03-27T00:52:58.933Z,4.70
2019-03-27T00:55:26.998Z,4.50
2019-03-27T00:57:55.027Z,4.50
2019-03-27T01:00:26.932Z,4.90
2019-03-27T01:02:54.977Z,4.90
2019-03-27T01:05:23.055Z,4.90
2019-03-27T01:07:51.099Z,5.00
2019-03-27T01:10:19.920Z,5.10
2019-03-27T01:12:47.959Z,5.10
2019-03-27T01:15:16.771Z,4.70
2019-03-27T01:17:44.825Z,4.70
2019-03-27T01:20:13.636Z,4.50
2019-03-27T01:22:41.684Z,4.50
2019-03-27T01:25:10.511Z,4.30
2019-03-27T01:27:38.535Z,4.30
2019-03-27T01:30:07.357Z,4.50
2019-03-27T01:32:35.398Z,4.40
2019-03-27T01:35:03.432Z,4.40
2019-03-27T01:37:31.554Z,4.50
2019-03-27T01:39:59.614Z,4.50
2019-03-27T01:42:27.701Z,4.70
2019-03-27T01:44:55.745Z,4.80
2019-03-27T01:47:24.558Z,4.60
2019-03-27T01:49:52.625Z,4.60
2019-03-27T01:52:20.693Z,4.50
2019-03-27T01:54:48.823Z,4.30
2019-03-27T01:57:16.780Z,4.10
2019-03-27T01:59:44.837Z,4.30
2019-03-27T02:02:12.892Z,4.30
2019-03-27T02:04:41.673Z,4.10
2019-03-27T02:07:09.718Z,4.10
2019-03-27T02:09:37.770Z,4.00
2019-03-27T02:12:05.791Z,4.20
2019-03-27T02:14:33.831Z,4.10
2019-03-27T02:17:01.883Z,4.00
2019-03-27T02:19:30.703Z,3.90
2019-03-27T02:21:58.755Z,3.90
2019-03-27T02:24:27.598Z,3.80
2019-03-27T02:26:55.760Z,3.80
2019-03-27T02:29:23.799Z,3.90
2019-03-27T02:31:51.851Z,3.90
2019-03-27T02:34:20.656Z,3.90
2019-03-27T02:36:48.719Z,3.90
2019-03-27T02:39:16.786Z,3.80
2019-03-27T02:41:44.845Z,3.90
2019-03-27T02:44:13.644Z,4.00
2019-03-27T02:46:42.464Z,4.20
2019-03-27T02:49:10.513Z,4.20
2019-03-27T02:51:38.587Z,4.30
2019-03-27T02:54:06.648Z,4.20
2019-03-27T02:56:35.456Z,4.20
2019-03-27T02:59:03.509Z,4.20
2019-03-27T03:01:32.337Z,4.00
2019-03-27T03:04:00.347Z,4.00
2019-03-27T03:06:29.169Z,3.80
2019-03-27T03:08:57.214Z,3.80
2019-03-27T03:11:26.046Z,3.90
2019-03-27T03:13:54.096Z,4.00
2019-03-27T03:16:22.146Z,4.00
2019-03-27T03:18:51.069Z,3.60
2019-03-27T03:21:19.126Z,3.70
2019-03-27T03:23:47.305Z,3.70
2019-03-27T03:26:15.259Z,3.80
2019-03-27T03:28:43.307Z,3.70
2019-03-27T03:31:11.362Z,3.80
2019-03-27T03:33:39.460Z,3.80
2019-03-27T03:36:08.288Z,3.80
2019-03-27T03:38:36.340Z,3.80
2019-03-27T03:41:05.226Z,3.90
2019-03-27T03:43:33.273Z,3.90
2019-03-27T03:46:02.107Z,3.80
2019-03-27T03:48:30.165Z,3.80
2019-03-27T03:50:58.204Z,3.80
2019-03-27T03:53:27.026Z,3.80
2019-03-27T03:55:55.076Z,3.80
2019-03-27T03:58:23.144Z,3.80
2019-03-27T04:00:51.203Z,3.70
2019-03-27T04:03:19.251Z,3.50
2019-03-27T04:05:47.372Z,3.50
2019-03-27T04:08:15.427Z,3.40
2019-03-27T04:10:43.819Z,3.40
2019-03-27T04:13:12.506Z,3.20
2019-03-27T04:15:40.544Z,3.20
2019-03-27T04:18:08.633Z,3.40
2019-03-27T04:20:37.421Z,3.40
2019-03-27T04:23:05.491Z,3.40
2019-03-27T04:26:00.342Z,3.40
2019-03-27T04:28:02.353Z,2.90
2019-03-27T04:30:30.389Z,2.90
2019-03-27T04:32:59.215Z,2.60
2019-03-27T04:35:27.273Z,2.60
2019-03-27T04:37:55.296Z,2.80
2019-03-27T04:40:23.333Z,2.80
2019-03-27T04:42:51.388Z,2.90
2019-03-27T04:45:19.462Z,2.90
2019-03-27T04:47:47.544Z,3.20
2019-03-27T04:50:15.535Z,3.20
2019-03-27T04:52:43.600Z,3.30
2019-03-27T04:55:11.631Z,3.00
2019-03-27T04:57:39.721Z,2.90
2019-03-27T05:00:07.767Z,3.00
2019-03-27T05:02:35.787Z,3.10
2019-03-27T05:05:04.549Z,3.00
2019-03-27T05:07:32.701Z,3.30
2019-03-27T05:10:00.746Z,3.30
2019-03-27T05:12:28.778Z,3.20
2019-03-27T05:14:56.910Z,3.10
2019-03-27T05:17:24.975Z,3.00
2019-03-27T05:19:53.031Z,3.00
2019-03-27T05:22:21.950Z,3.00
2019-03-27T05:24:49.991Z,2.90
2019-03-27T05:27:18.805Z,3.10
2019-03-27T05:29:46.847Z,3.10
2019-03-27T05:32:15.770Z,3.30
2019-03-27T05:34:44.548Z,3.20
2019-03-27T05:37:12.623Z,3.20
2019-03-27T05:39:40.674Z,3.30
2019-03-27T05:42:09.500Z,3.20
2019-03-27T05:44:37.534Z,3.20
2019-03-27T05:47:06.364Z,3.50
2019-03-27T05:49:34.420Z,3.50
2019-03-27T05:52:02.479Z,3.40
2019-03-27T05:54:30.515Z,3.50
2019-03-27T05:56:59.347Z,3.50
2019-03-27T05:59:28.131Z,3.50
2019-03-27T06:01:56.179Z,3.50
2019-03-27T06:04:25.007Z,3.40
2019-03-27T06:06:53.151Z,3.40
2019-03-27T06:09:21.210Z,3.40
2019-03-27T06:11:50.107Z,3.40
2019-03-27T06:14:18.159Z,3.40
2019-03-27T06:16:46.982Z,3.50
2019-03-27T06:19:15.027Z,3.40
2019-03-27T06:21:43.847Z,3.70
2019-03-27T06:24:12.003Z,3.60
2019-03-27T06:26:40.047Z,3.80
2019-03-27T06:29:08.866Z,3.90
2019-03-27T06:31:36.907Z,3.90
2019-03-27T06:34:05.818Z,4.00
2019-03-27T06:36:33.855Z,4.00
2019-03-27T06:39:01.927Z,3.70
2019-03-27T06:41:30.050Z,3.60
2019-03-27T06:43:58.104Z,3.70
2019-03-27T06:46:26.159Z,3.90
2019-03-27T06:48:54.988Z,3.80
2019-03-27T06:51:25.098Z,3.80
2019-03-27T06:53:51.111Z,3.90
2019-03-27T06:56:19.158Z,4.00
2019-03-27T06:58:54.561Z,3.90
2019-03-27T07:01:16.267Z,3.90
2019-03-27T07:03:44.291Z,4.10
2019-03-27T07:06:13.099Z,4.40
2019-03-27T07:08:41.146Z,4.40
2019-03-27T07:11:09.967Z,4.80
2019-03-27T07:13:38.023Z,4.80
2019-03-27T07:16:06.071Z,4.90
2019-03-27T07:18:40.301Z,5.00
2019-03-27T07:21:03.034Z,5.00
2019-03-27T07:23:31.858Z,4.80
2019-03-27T07:25:59.903Z,4.70
2019-03-27T07:28:27.930Z,4.90
2019-03-27T07:30:56.063Z,4.90
2019-03-27T07:33:24.122Z,4.70
2019-03-27T07:35:53.739Z,4.70
2019-03-27T07:38:21.787Z,4.70
2019-03-27T07:40:50.607Z,5.30
2019-03-27T07:43:19.412Z,5.60
2019-03-27T07:45:47.588Z,5.50
2019-03-27T07:48:15.638Z,5.10
2019-03-27T07:50:43.709Z,5.20
2019-03-27T07:53:11.781Z,5.00
2019-03-27T07:55:39.861Z,5.20
2019-03-27T07:58:08.027Z,5.30
2019-03-27T08:00:36.095Z,5.40
2019-03-27T08:03:04.899Z,5.40
2019-03-27T08:05:32.943Z,5.40
2019-03-27T08:08:01.766Z,5.80
2019-03-27T08:10:29.810Z,5.70
2019-03-27T08:12:57.960Z,5.90
2019-03-27T08:15:25.990Z,6.00
2019-03-27T08:17:54.226Z,5.90
2019-03-27T08:20:22.291Z,6.20
2019-03-27T08:22:51.912Z,6.40
2019-03-27T08:25:19.993Z,6.40
2019-03-27T08:30:18.175Z,7.20
2019-03-27T08:32:46.224Z,7.20
2019-03-27T08:35:15.143Z,5.90
2019-03-27T08:37:43.198Z,5.90
2019-03-27T08:40:11.271Z,5.90
2019-03-27T08:42:39.333Z,5.90
2019-03-27T08:45:07.376Z,5.90
2019-03-27T08:47:35.428Z,5.90
2019-03-27T08:50:05.371Z,6.00
2019-03-27T08:52:34.176Z,6.60
2019-03-27T08:55:02.222Z,6.60
2019-03-27T08:57:30.257Z,6.50
2019-03-27T08:59:58.315Z,6.60
2019-03-27T09:02:26.362Z,7.10
2019-03-27T09:04:54.434Z,7.30
2019-03-27T09:07:22.487Z,7.60
2019-03-27T09:09:50.503Z,7.10
2019-03-27T09:12:18.649Z,6.90
2019-03-27T09:14:46.631Z,6.80
2019-03-27T09:17:14.667Z,6.70
2019-03-27T09:19:43.576Z,7.40
2019-03-27T09:22:11.623Z,7.40
2019-03-27T09:24:39.723Z,7.70
2019-03-27T09:27:07.758Z,8.30
2019-03-27T09:29:36.586Z,7.90
2019-03-27T09:32:04.622Z,7.90
2019-03-27T09:34:33.446Z,7.90
2019-03-27T09:37:02.324Z,8.20
2019-03-27T09:39:30.384Z,8.10
2019-03-27T09:41:59.589Z,9.00
2019-03-27T09:44:28.374Z,8.80
2019-03-27T09:46:56.427Z,8.80
2019-03-27T09:49:25.247Z,8.70
2019-03-27T09:51:53.296Z,8.70
2019-03-27T09:54:22.119Z,9.00
2019-03-27T09:56:50.172Z,9.00
2019-03-27T09:59:18.222Z,8.50
2019-03-27T10:01:47.849Z,7.80
2019-03-27T10:04:15.955Z,7.80
2019-03-27T10:06:43.972Z,7.80
2019-03-27T10:09:12.126Z,8.00
2019-03-27T10:11:40.843Z,8.50
2019-03-27T10:14:09.011Z,8.50
2019-03-27T10:16:37.082Z,8.80
2019-03-27T10:19:05.174Z,9.10
2019-03-27T10:21:33.259Z,9.10
2019-03-27T10:24:01.296Z,8.90
2019-03-27T10:26:29.368Z,8.90
2019-03-27T10:28:58.152Z,9.40
2019-03-27T10:31:26.521Z,9.40
2019-03-27T10:33:55.340Z,8.60
2019-03-27T10:36:23.395Z,8.60
2019-03-27T10:38:51.475Z,8.40
2019-03-27T10:41:19.535Z,8.20
2019-03-27T10:43:47.578Z,8.10
2019-03-27T10:46:16.403Z,7.70
2019-03-27T10:48:52.458Z,7.70
2019-03-27T10:51:12.534Z,7.80
2019-03-27T10:53:40.611Z,8.20
2019-03-27T10:56:08.664Z,8.40
2019-03-27T10:58:36.706Z,8.30
2019-03-27T11:01:07.184Z,8.40
2019-03-27T11:03:33.583Z,8.40
2019-03-27T11:06:02.395Z,8.80
2019-03-27T11:08:30.440Z,8.80
2019-03-27T11:10:59.271Z,10.20
2019-03-27T11:13:27.315Z,10.20
2019-03-27T11:15:56.357Z,10.30
2019-03-27T11:18:24.409Z,10.00
2019-03-27T11:20:52.472Z,9.80
2019-03-27T11:23:20.506Z,9.60
2019-03-27T11:25:48.547Z,9.50
2019-03-27T11:28:16.596Z,10.00
2019-03-27T11:30:48.140Z,9.90
2019-03-27T11:33:12.959Z,9.40
2019-03-27T11:35:41.079Z,9.10
2019-03-27T11:38:09.124Z,9.10
2019-03-27T11:40:37.308Z,9.10
2019-03-27T11:43:06.107Z,9.70
2019-03-27T11:45:34.151Z,9.70
2019-03-27T11:48:02.164Z,9.70
2019-03-27T11:50:43.764Z,9.60
2019-03-27T11:52:58.409Z,9.50
2019-03-27T11:55:27.390Z,10.70
2019-03-27T11:57:55.424Z,10.70
2019-03-27T12:00:23.500Z,10.70
2019-03-27T12:02:51.817Z,10.30
2019-03-27T12:05:19.914Z,9.70
2019-03-27T12:07:48.155Z,9.70
2019-03-27T12:10:16.203Z,9.80
2019-03-27T12:12:48.032Z,9.50
2019-03-27T12:15:13.049Z,9.50
2019-03-27T12:17:41.915Z,10.60
2019-03-27T12:20:09.942Z,10.60
2019-03-27T12:22:37.988Z,10.30
2019-03-27T12:25:06.892Z,9.70
2019-03-27T12:27:34.902Z,9.70
2019-03-27T12:30:02.977Z,9.90
2019-03-27T12:32:31.043Z,10.10
2019-03-27T12:34:59.053Z,10.30
2019-03-27T12:37:27.907Z,11.50
2019-03-27T12:39:55.933Z,11.50
2019-03-27T12:42:23.975Z,12.20
2019-03-27T12:44:52.907Z,13.10
2019-03-27T12:47:20.946Z,13.10
2019-03-27T12:49:51.982Z,10.90
2019-03-27T12:52:17.813Z,10.90
2019-03-27T12:54:46.601Z,9.80
2019-03-27T12:57:14.666Z,9.80
2019-03-27T12:59:43.487Z,9.40
2019-03-27T13:02:11.634Z,9.40
2019-03-27T13:04:39.682Z,9.20
2019-03-27T13:07:07.707Z,9.40
2019-03-27T13:09:35.748Z,9.70
2019-03-27T13:12:03.814Z,9.80
2019-03-27T13:14:31.891Z,9.80
2019-03-27T13:16:59.950Z,9.90
2019-03-27T13:19:28.003Z,9.80
2019-03-27T13:21:56.840Z,9.80
2019-03-27T13:24:24.900Z,9.80
2019-03-27T13:26:52.959Z,9.70
2019-03-27T13:29:21.032Z,9.40
2019-03-27T13:31:49.091Z,9.20
2019-03-27T13:34:17.138Z,8.90
2019-03-27T13:36:45.967Z,8.60
2019-03-27T13:39:14.830Z,8.60
2019-03-27T13:41:43.659Z,8.30
2019-03-27T13:44:11.702Z,8.30
2019-03-27T13:46:39.802Z,8.10
2019-03-27T13:49:07.778Z,8.00
2019-03-27T13:51:40.785Z,8.10
2019-03-27T13:54:03.896Z,8.00
2019-03-27T13:56:32.683Z,7.90
2019-03-27T13:59:00.748Z,7.90
2019-03-27T14:01:29.632Z,8.20
2019-03-27T14:03:57.686Z,8.20
2019-03-27T14:06:26.490Z,8.30
2019-03-27T14:08:54.563Z,8.20
2019-03-27T14:11:22.606Z,8.20
2019-03-27T14:13:50.708Z,8.20
2019-03-27T14:16:18.750Z,8.10
2019-03-27T14:18:48.911Z,8.00
2019-03-27T14:21:15.605Z,8.00
2019-03-27T14:23:44.532Z,8.00
2019-03-27T14:26:13.316Z,8.00
2019-03-27T14:28:41.380Z,7.90
2019-03-27T14:31:09.432Z,8.00
2019-03-27T14:33:38.239Z,8.10
2019-03-27T14:36:06.335Z,8.10
2019-03-27T14:38:34.386Z,8.20
2019-03-27T14:41:02.423Z,8.30
2019-03-27T14:43:31.234Z,8.20
2019-03-27T14:45:59.285Z,8.20
2019-03-27T14:48:28.205Z,8.20
2019-03-27T14:50:56.249Z,8.10
2019-03-27T14:53:25.170Z,8.00
2019-03-27T14:55:53.211Z,8.00
2019-03-27T14:58:21.298Z,8.00
2019-03-27T15:00:49.404Z,8.00
2019-03-27T15:03:17.427Z,7.90
2019-03-27T15:05:45.496Z,7.80
2019-03-27T15:08:14.303Z,7.80
2019-03-27T15:10:43.092Z,7.80
2019-03-27T15:13:11.428Z,7.80
2019-03-27T15:15:39.458Z,7.80
2019-03-27T15:18:07.653Z,7.80
2019-03-27T15:20:35.661Z,7.80
2019-03-27T15:23:04.478Z,7.80
2019-03-27T15:25:32.498Z,7.80
2019-03-27T15:28:00.599Z,9.50
2019-03-27T15:30:28.677Z,10.80
2019-03-27T15:32:57.807Z,10.80
2019-03-27T15:35:25.854Z,10.80
2019-03-27T15:37:53.899Z,11.20
2019-03-27T15:40:37.253Z,11.30
2019-03-27T15:43:05.326Z,11.30
2019-03-27T15:45:33.450Z,10.30
2019-03-27T15:48:02.291Z,8.80
2019-03-27T15:50:30.325Z,8.80
2019-03-27T15:52:58.393Z,8.60
2019-03-27T15:55:27.299Z,8.20
2019-03-27T15:57:55.616Z,8.10
2019-03-27T16:00:23.668Z,8.20
2019-03-27T16:02:51.713Z,8.20
2019-03-27T16:05:19.772Z,8.20
2019-03-27T16:07:48.914Z,8.10
2019-03-27T16:10:18.334Z,8.10
2019-03-27T16:12:45.012Z,8.00
2019-03-27T16:15:13.067Z,7.90
2019-03-27T16:17:41.886Z,7.80
2019-03-27T16:20:09.934Z,7.80
2019-03-27T16:22:49.988Z,7.90
2019-03-27T16:25:06.109Z,7.90
2019-03-27T16:27:34.071Z,7.90
2019-03-27T16:30:02.133Z,7.90
2019-03-27T16:32:30.920Z,7.90
2019-03-27T16:34:59.034Z,7.90
2019-03-27T16:37:27.080Z,8.00
2019-03-27T16:39:55.215Z,8.00
2019-03-27T16:42:23.292Z,7.90
2019-03-27T16:44:51.364Z,7.90
2019-03-27T16:47:20.142Z,7.90
2019-03-27T16:49:48.191Z,7.90
2019-03-27T16:52:16.243Z,8.00
2019-03-27T16:54:44.364Z,8.00
2019-03-27T16:57:12.413Z,7.90
2019-03-27T16:59:41.227Z,7.90
2019-03-27T17:02:09.285Z,7.90
2019-03-27T17:04:37.342Z,8.00
2019-03-27T17:07:06.160Z,8.00
2019-03-27T17:09:34.228Z,8.00
2019-03-27T17:12:03.019Z,8.00
2019-03-27T17:14:31.076Z,8.10
2019-03-27T17:16:59.210Z,8.00
2019-03-27T17:19:27.247Z,8.00
2019-03-27T17:21:55.410Z,8.00
2019-03-27T17:24:23.459Z,8.00
2019-03-27T17:26:52.376Z,7.80
2019-03-27T17:29:20.415Z,7.80
2019-03-27T17:31:49.238Z,7.90
2019-03-27T17:34:17.294Z,7.80
2019-03-27T17:36:45.363Z,7.80
2019-03-27T17:39:14.126Z,7.80
2019-03-27T17:41:42.175Z,7.80
2019-03-27T17:44:10.182Z,7.80
2019-03-27T17:46:38.257Z,7.90
2019-03-27T17:49:06.306Z,8.00
2019-03-27T17:51:34.405Z,7.90
2019-03-27T17:54:02.516Z,7.80
2019-03-27T17:56:31.275Z,7.60
2019-03-27T17:58:59.321Z,7.60
2019-03-27T18:01:27.370Z,7.70
2019-03-27T18:03:56.179Z,7.80
2019-03-27T18:06:24.226Z,7.80
2019-03-27T18:08:53.054Z,7.90
2019-03-27T18:11:21.111Z,7.90
2019-03-27T18:13:49.143Z,7.90
2019-03-27T18:16:17.969Z,7.60
2019-03-27T18:18:46.009Z,7.60
2019-03-27T18:21:14.840Z,7.70
2019-03-27T18:23:46.124Z,7.60
2019-03-27T18:26:11.776Z,7.70
2019-03-27T18:28:39.829Z,7.70
2019-03-27T18:31:07.927Z,7.80
2019-03-27T18:33:35.967Z,7.80
2019-03-27T18:36:04.818Z,7.80
2019-03-27T18:38:32.887Z,7.80
2019-03-27T18:41:00.938Z,7.80
2019-03-27T18:43:29.007Z,7.60
2019-03-27T18:45:57.047Z,7.70
2019-03-27T18:48:25.950Z,7.80
2019-03-27T18:50:54.025Z,7.70
2019-03-27T18:53:22.071Z,7.80
2019-03-27T18:55:50.890Z,7.80
2019-03-27T18:58:19.684Z,7.70
2019-03-27T19:00:47.720Z,7.70
2019-03-27T19:03:16.645Z,7.60
2019-03-27T19:05:44.698Z,7.60
2019-03-27T19:08:12.748Z,7.60
2019-03-27T19:10:41.563Z,7.50
2019-03-27T19:13:09.665Z,7.50
2019-03-27T19:15:37.706Z,7.50
2019-03-27T19:18:06.553Z,7.50
2019-03-27T19:20:34.668Z,7.50
2019-03-27T19:23:02.724Z,7.40
2019-03-27T19:25:31.593Z,7.30
2019-03-27T19:27:59.592Z,7.30
2019-03-27T19:30:27.778Z,7.30
2019-03-27T19:32:55.863Z,7.40
2019-03-27T19:35:24.657Z,7.50
2019-03-27T19:37:52.748Z,7.50
2019-03-27T19:40:20.758Z,7.50
2019-03-27T19:42:48.852Z,7.40
2019-03-27T19:45:16.916Z,7.40
2019-03-27T19:47:45.688Z,7.30
2019-03-27T19:50:13.765Z,7.30
2019-03-27T19:52:41.829Z,7.20
2019-03-27T19:55:09.923Z,7.30
2019-03-27T19:57:37.939Z,7.40
2019-03-27T20:00:06.751Z,7.10
2019-03-27T20:02:34.799Z,7.10
2019-03-27T20:05:03.615Z,7.00
2019-03-27T20:07:36.223Z,7.10
2019-03-27T20:10:00.461Z,7.10
2019-03-27T20:12:28.509Z,7.10
2019-03-27T20:15:10.794Z,7.00
2019-03-27T20:17:25.508Z,7.00
2019-03-27T20:19:53.559Z,7.00
2019-03-27T20:22:21.638Z,7.20
2019-03-27T20:24:49.688Z,7.10
2019-03-27T20:27:18.613Z,7.10
2019-03-27T20:29:46.764Z,7.10
2019-03-27T20:32:14.746Z,7.10
2019-03-27T20:34:42.801Z,7.20
2019-03-27T20:37:11.603Z,7.20
2019-03-27T20:39:42.531Z,7.20
2019-03-27T20:42:07.712Z,7.20
2019-03-27T20:44:35.736Z,7.10
2019-03-27T20:47:03.796Z,7.10
2019-03-27T20:49:31.848Z,7.00
2019-03-27T20:52:00.627Z,6.90
2019-03-27T20:54:28.680Z,6.90
2019-03-27T20:56:57.491Z,6.80
2019-03-27T20:59:25.568Z,6.80
2019-03-27T21:01:53.645Z,6.80
2019-03-27T21:04:21.682Z,6.90
2019-03-27T21:06:50.620Z,7.00
2019-03-27T21:09:18.643Z,6.90
2019-03-27T21:11:46.673Z,6.90
2019-03-27T21:14:14.731Z,6.90
2019-03-27T21:16:42.774Z,7.00
2019-03-27T21:19:10.860Z,6.90
2019-03-27T21:21:41.737Z,7.00
2019-03-27T21:24:06.961Z,6.80
2019-03-27T21:26:35.767Z,6.70
2019-03-27T21:29:03.828Z,6.60
2019-03-27T21:31:33.510Z,6.80
2019-03-27T21:34:01.555Z,6.80
2019-03-27T21:36:29.599Z,6.90
2019-03-27T21:38:57.663Z,6.90
2019-03-27T21:41:26.447Z,6.70
2019-03-27T21:43:54.520Z,6.80
2019-03-27T21:46:22.600Z,6.80
2019-03-27T21:48:50.646Z,6.80
2019-03-27T21:51:18.726Z,6.90
2019-03-27T21:53:50.589Z,6.90
2019-03-27T21:56:15.690Z,7.00
2019-03-27T21:58:43.742Z,7.00
2019-03-27T22:01:12.565Z,6.80
2019-03-27T22:03:40.594Z,6.80
2019-03-27T22:06:09.525Z,6.70
2019-03-27T22:08:37.555Z,6.70
2019-03-27T22:11:06.365Z,6.70
2019-03-27T22:13:34.439Z,6.70
2019-03-27T22:16:03.247Z,6.80
2019-03-27T22:18:31.267Z,6.80
2019-03-27T22:21:00.087Z,6.70
2019-03-27T22:23:28.129Z,6.80
2019-03-27T22:25:56.943Z,6.60
2019-03-27T22:28:24.999Z,6.60
2019-03-27T22:30:53.051Z,6.70
2019-03-27T22:33:21.851Z,6.50
2019-03-27T22:35:50.674Z,6.40
2019-03-27T22:38:18.731Z,6.40
2019-03-27T22:40:46.786Z,6.50
2019-03-27T22:43:14.832Z,6.40
2019-03-27T22:45:42.896Z,6.40
2019-03-27T22:48:10.897Z,6.50
2019-03-27T22:50:38.959Z,6.30
2019-03-27T22:53:07.770Z,6.40
2019-03-27T22:55:48.604Z,6.40
2019-03-27T22:58:04.642Z,6.30
2019-03-27T23:00:33.495Z,6.30
2019-03-27T23:03:02.405Z,6.50
2019-03-27T23:05:30.469Z,6.50
2019-03-27T23:07:58.612Z,6.50
2019-03-27T23:10:26.653Z,6.40
2019-03-27T23:12:54.695Z,6.50
2019-03-27T23:15:22.760Z,6.30
2019-03-27T23:17:50.800Z,6.30
2019-03-27T23:20:19.614Z,6.30
2019-03-27T23:22:48.396Z,6.30
2019-03-27T23:25:16.454Z,6.30
2019-03-27T23:27:45.368Z,6.50
2019-03-27T23:30:13.479Z,6.50
2019-03-27T23:32:41.499Z,6.50
2019-03-27T23:35:09.583Z,6.40
2019-03-27T23:37:37.601Z,6.30
2019-03-27T23:40:05.657Z,6.10
2019-03-27T23:42:34.139Z,6.10
2019-03-27T23:45:01.840Z,6.10
2019-03-27T23:47:29.880Z,6.10
2019-03-27T23:49:57.983Z,6.10
2019-03-27T23:52:26.054Z,6.20
2019-03-27T23:54:54.141Z,6.20
2019-03-27T23:57:22.189Z,6.30
2019-03-27T23:59:50.271Z,6.30
